createdAt,value
2018-02-12T00:00:07.754Z,100259.03
2018-02-12T00:01:11.944Z,100260.72
2018-02-12T00:02:16.940Z,100263.23
2018-02-12T00:03:21.187Z,100262.38
2018-02-12T00:04:25.612Z,100277.11
2018-02-12T00:05:29.860Z,100275.88
2018-02-12T00:06:34.169Z,100271.68
2018-02-12T00:07:38.364Z,100273.77
2018-02-12T00:08:42.567Z,100272.94
2018-02-12T00:09:46.777Z,100275.88
2018-02-12T00:10:50.268Z,100283.86
2018-02-12T00:11:55.826Z,100280.52
2018-02-12T00:13:00.326Z,100279.66
2018-02-12T00:14:05.341Z,100285.95
2018-02-12T00:15:10.305Z,100283.44
2018-02-12T00:16:14.516Z,100280.89
2018-02-12T00:17:18.704Z,100285.11
2018-02-12T00:18:22.884Z,100284.28
2018-02-12T00:19:31.319Z,100284.29
2018-02-12T00:20:35.565Z,100282.62
2018-02-12T00:21:39.735Z,100289.32
2018-02-12T00:22:44.698Z,100282.20
2018-02-12T00:23:48.896Z,100288.95
2018-02-12T00:24:53.530Z,100287.25
2018-02-12T00:25:57.863Z,100293.58
2018-02-12T00:27:02.091Z,100286.00
2018-02-12T00:28:06.305Z,100289.39
2018-02-12T00:29:10.487Z,100292.75
2018-02-12T00:30:15.072Z,100291.05
2018-02-12T00:31:19.266Z,100291.07
2018-02-12T00:32:23.475Z,100296.97
2018-02-12T00:33:27.769Z,100288.95
2018-02-12T00:34:32.106Z,100283.06
2018-02-12T00:35:36.351Z,100291.48
2018-02-12T00:36:40.557Z,100285.19
2018-02-12T00:37:44.742Z,100290.19
2018-02-12T00:38:49.703Z,100298.63
2018-02-12T00:39:54.495Z,100302.40
2018-02-12T00:40:59.296Z,100301.98
2018-02-12T00:42:03.581Z,100310.38
2018-02-12T00:43:08.613Z,100313.78
2018-02-12T00:44:12.887Z,100314.18
2018-02-12T00:45:17.091Z,100306.61
2018-02-12T00:46:21.272Z,100307.02
2018-02-12T00:47:26.268Z,100320.88
2018-02-12T00:48:30.549Z,100320.88
2018-02-12T00:49:34.788Z,100324.28
2018-02-12T00:50:39.049Z,100327.20
2018-02-12T00:51:44.021Z,100325.53
2018-02-12T00:52:48.208Z,100325.09
2018-02-12T00:53:52.890Z,100327.59
2018-02-12T00:54:57.106Z,100326.80
2018-02-12T00:56:01.344Z,100327.19
2018-02-12T00:57:05.662Z,100321.33
2018-02-12T00:58:09.873Z,100328.06
2018-02-12T00:59:14.133Z,100325.53
2018-02-12T01:00:18.307Z,100326.38
2018-02-12T01:01:22.648Z,100333.11
2018-02-12T01:02:27.055Z,100328.45
2018-02-12T01:03:31.276Z,100327.61
2018-02-12T01:04:35.548Z,100329.31
2018-02-12T01:05:39.782Z,100331.85
2018-02-12T01:06:43.969Z,100331.44
2018-02-12T01:07:48.151Z,100333.52
2018-02-12T01:08:53.548Z,100339.84
2018-02-12T01:09:58.103Z,100338.59
2018-02-12T01:11:03.093Z,100338.61
2018-02-12T01:12:07.315Z,100343.21
2018-02-12T01:13:11.518Z,100344.50
2018-02-12T01:14:15.774Z,100344.12
2018-02-12T01:15:20.917Z,100346.24
2018-02-12T01:16:26.165Z,100345.81
2018-02-12T01:17:30.451Z,100347.88
2018-02-12T01:18:35.435Z,100352.13
2018-02-12T01:19:39.658Z,100350.44
2018-02-12T01:20:43.850Z,100350.40
2018-02-12T01:21:48.061Z,100353.36
2018-02-12T01:22:52.269Z,100352.53
2018-02-12T01:23:56.875Z,100352.13
2018-02-12T01:25:01.294Z,100350.42
2018-02-12T01:26:05.554Z,100358.84
2018-02-12T01:27:09.774Z,100363.90
2018-02-12T01:28:13.973Z,100363.47
2018-02-12T01:29:18.189Z,100361.82
2018-02-12T01:30:22.404Z,100365.60
2018-02-12T01:31:26.716Z,100360.97
2018-02-12T01:32:30.953Z,100361.82
2018-02-12T01:33:35.151Z,100365.59
2018-02-12T01:34:40.100Z,100369.01
2018-02-12T01:35:44.295Z,100363.94
2018-02-12T01:36:49.236Z,100364.38
2018-02-12T01:37:53.459Z,100366.88
2018-02-12T01:38:57.909Z,100365.20
2018-02-12T01:40:02.182Z,100366.88
2018-02-12T01:41:06.381Z,100362.25
2018-02-12T01:42:10.592Z,100363.51
2018-02-12T01:43:14.787Z,100369.38
2018-02-12T01:44:19.751Z,100371.08
2018-02-12T01:45:24.785Z,100368.97
2018-02-12T01:46:29.124Z,100368.96
2018-02-12T01:47:33.394Z,100375.30
2018-02-12T01:48:38.343Z,100374.84
2018-02-12T01:49:42.586Z,100376.55
2018-02-12T01:50:46.822Z,100382.02
2018-02-12T01:51:51.759Z,100372.75
2018-02-12T01:52:57.244Z,100381.17
2018-02-12T01:54:01.480Z,100372.74
2018-02-12T01:55:05.691Z,100376.13
2018-02-12T01:56:11.411Z,100375.25
2018-02-12T01:57:15.621Z,100376.92
2018-02-12T01:58:19.787Z,100378.60
2018-02-12T01:59:24.806Z,100375.61
2018-02-12T02:00:29.321Z,100379.83
2018-02-12T02:01:34.316Z,100383.61
2018-02-12T02:02:38.522Z,100380.66
2018-02-12T02:03:42.718Z,100385.69
2018-02-12T02:04:46.975Z,100380.66
2018-02-12T02:05:51.156Z,100373.08
2018-02-12T02:06:55.396Z,100372.24
2018-02-12T02:08:00.512Z,100378.55
2018-02-12T02:09:04.864Z,100376.86
2018-02-12T02:10:09.836Z,100373.50
2018-02-12T02:11:14.019Z,100379.39
2018-02-12T02:12:18.200Z,100379.38
2018-02-12T02:13:23.156Z,100380.22
2018-02-12T02:14:27.391Z,100382.76
2018-02-12T02:15:31.610Z,100380.25
2018-02-12T02:16:35.807Z,100386.58
2018-02-12T02:17:39.983Z,100385.31
2018-02-12T02:18:44.970Z,100389.09
2018-02-12T02:19:49.254Z,100382.77
2018-02-12T02:20:53.459Z,100387.80
2018-02-12T02:21:58.316Z,100397.47
2018-02-12T02:23:02.727Z,100398.72
2018-02-12T02:24:06.923Z,100398.31
2018-02-12T02:25:11.114Z,100400.43
2018-02-12T02:26:15.363Z,100400.44
2018-02-12T02:27:19.539Z,100402.97
2018-02-12T02:28:23.870Z,100402.11
2018-02-12T02:29:29.727Z,100408.02
2018-02-12T02:30:34.003Z,100400.84
2018-02-12T02:31:38.246Z,100402.58
2018-02-12T02:32:42.459Z,100402.57
2018-02-12T02:33:46.668Z,100398.34
2018-02-12T02:34:50.859Z,100407.19
2018-02-12T02:35:55.338Z,100402.17
2018-02-12T02:36:59.667Z,100401.75
2018-02-12T02:38:04.144Z,100399.65
2018-02-12T02:39:08.361Z,100400.04
2018-02-12T02:40:12.561Z,100398.40
2018-02-12T02:41:16.739Z,100397.97
2018-02-12T02:42:21.036Z,100398.80
2018-02-12T02:43:25.471Z,100400.05
2018-02-12T02:44:30.396Z,100392.06
2018-02-12T02:45:34.656Z,100394.59
2018-02-12T02:46:38.896Z,100397.11
2018-02-12T02:47:43.130Z,100402.16
2018-02-12T02:48:47.308Z,100404.66
2018-02-12T02:49:52.303Z,100400.84
2018-02-12T02:50:58.111Z,100401.29
2018-02-12T02:52:02.353Z,100402.98
2018-02-12T02:53:06.919Z,100406.76
2018-02-12T02:54:11.876Z,100402.13
2018-02-12T02:55:16.068Z,100403.36
2018-02-12T02:56:20.277Z,100401.71
2018-02-12T02:57:24.549Z,100402.55
2018-02-12T02:58:28.923Z,100404.22
2018-02-12T02:59:33.161Z,100402.97
2018-02-12T03:00:38.898Z,100405.48
2018-02-12T03:01:43.158Z,100410.11
2018-02-12T03:02:48.146Z,100400.84
2018-02-12T03:03:52.374Z,100411.39
2018-02-12T03:04:56.666Z,100400.02
2018-02-12T03:06:01.136Z,100409.29
2018-02-12T03:07:05.740Z,100408.42
2018-02-12T03:08:09.911Z,100413.06
2018-02-12T03:09:14.098Z,100413.05
2018-02-12T03:10:18.298Z,100415.16
2018-02-12T03:11:22.511Z,100419.76
2018-02-12T03:12:27.030Z,100416.86
2018-02-12T03:13:31.558Z,100413.47
2018-02-12T03:14:35.816Z,100416.84
2018-02-12T03:15:40.031Z,100411.78
2018-02-12T03:16:44.254Z,100414.70
2018-02-12T03:17:49.211Z,100409.65
2018-02-12T03:18:53.464Z,100420.58
2018-02-12T03:19:57.969Z,100414.27
2018-02-12T03:21:02.219Z,100417.21
2018-02-12T03:22:07.210Z,100419.30
2018-02-12T03:23:12.032Z,100423.52
2018-02-12T03:24:16.243Z,100428.55
2018-02-12T03:25:20.478Z,100426.86
2018-02-12T03:26:24.760Z,100426.84
2018-02-12T03:27:29.017Z,100427.69
2018-02-12T03:28:33.263Z,100430.20
2018-02-12T03:29:37.453Z,100428.53
2018-02-12T03:30:42.452Z,100428.09
2018-02-12T03:31:46.642Z,100427.22
2018-02-12T03:32:50.837Z,100433.53
2018-02-12T03:33:55.383Z,100431.86
2018-02-12T03:34:59.699Z,100438.58
2018-02-12T03:36:03.972Z,100443.63
2018-02-12T03:37:08.576Z,100435.62
2018-02-12T03:38:13.523Z,100447.37
2018-02-12T03:39:17.694Z,100443.61
2018-02-12T03:40:22.658Z,100449.52
2018-02-12T03:41:28.559Z,100449.94
2018-02-12T03:42:32.906Z,100451.60
2018-02-12T03:43:37.095Z,100453.71
2018-02-12T03:44:42.076Z,100458.78
2018-02-12T03:45:46.769Z,100459.62
2018-02-12T03:46:50.956Z,100459.23
2018-02-12T03:47:55.400Z,100461.77
2018-02-12T03:48:59.667Z,100452.53
2018-02-12T03:50:03.948Z,100457.97
2018-02-12T03:51:08.190Z,100451.27
2018-02-12T03:52:12.382Z,100453.34
2018-02-12T03:53:16.968Z,100453.79
2018-02-12T03:54:21.143Z,100459.23
2018-02-12T03:55:25.868Z,100460.48
2018-02-12T03:56:30.152Z,100462.62
2018-02-12T03:57:34.598Z,100462.62
2018-02-12T03:58:38.852Z,100455.45
2018-02-12T03:59:43.039Z,100457.14
2018-02-12T04:00:47.266Z,100461.31
2018-02-12T04:01:52.183Z,100461.75
2018-02-12T04:02:58.009Z,100464.67
2018-02-12T04:04:02.747Z,100463.00
2018-02-12T04:05:07.934Z,100460.87
2018-02-12T04:06:12.130Z,100465.92
2018-02-12T04:07:16.306Z,100468.02
2018-02-12T04:08:20.490Z,100464.22
2018-02-12T04:09:25.230Z,100470.13
2018-02-12T04:10:29.870Z,100471.37
2018-02-12T04:11:34.094Z,100473.92
2018-02-12T04:12:38.305Z,100475.55
2018-02-12T04:13:42.483Z,100476.83
2018-02-12T04:14:57.589Z,100483.14
2018-02-12T04:16:01.796Z,100477.71
2018-02-12T04:17:06.093Z,100482.34
2018-02-12T04:18:10.270Z,100476.84
2018-02-12T04:19:15.230Z,100479.83
2018-02-12T04:20:19.459Z,100487.41
2018-02-12T04:21:23.795Z,100488.27
2018-02-12T04:22:28.246Z,100483.66
2018-02-12T04:23:33.384Z,100477.34
2018-02-12T04:24:37.590Z,100489.13
2018-02-12T04:25:42.621Z,100489.14
2018-02-12T04:26:47.590Z,100490.41
2018-02-12T04:27:51.801Z,100496.30
2018-02-12T04:28:56.663Z,100489.13
2018-02-12T04:30:01.127Z,100492.52
2018-02-12T04:31:06.025Z,100496.28
2018-02-12T04:32:10.230Z,100492.91
2018-02-12T04:33:14.562Z,100494.98
2018-02-12T04:34:18.735Z,100499.61
2018-02-12T04:35:22.925Z,100497.48
2018-02-12T04:36:28.342Z,100502.12
2018-02-12T04:37:32.583Z,100500.88
2018-02-12T04:38:36.843Z,100498.33
2018-02-12T04:39:41.795Z,100505.89
2018-02-12T04:40:45.980Z,100509.66
2018-02-12T04:41:50.997Z,100511.75
2018-02-12T04:42:55.940Z,100515.97
2018-02-12T04:44:00.410Z,100509.66
2018-02-12T04:45:04.793Z,100516.42
2018-02-12T04:46:08.992Z,100514.71
2018-02-12T04:47:13.170Z,100521.02
2018-02-12T04:48:17.424Z,100518.08
2018-02-12T04:49:21.611Z,100523.12
2018-02-12T04:50:26.978Z,100521.87
2018-02-12T04:51:32.185Z,100521.48
2018-02-12T04:52:36.448Z,100530.30
2018-02-12T04:53:40.725Z,100517.68
2018-02-12T04:54:44.998Z,100521.47
2018-02-12T04:55:49.979Z,100523.55
2018-02-12T04:56:54.245Z,100523.11
2018-02-12T04:57:58.893Z,100524.40
2018-02-12T04:59:04.433Z,100531.14
2018-02-12T05:00:08.656Z,100524.38
2018-02-12T05:01:12.851Z,100528.17
2018-02-12T05:02:17.181Z,100529.40
2018-02-12T05:03:21.379Z,100530.23
2018-02-12T05:04:25.890Z,100540.31
2018-02-12T05:05:30.302Z,100543.26
2018-02-12T05:06:34.919Z,100532.72
2018-02-12T05:07:39.178Z,100536.09
2018-02-12T05:08:43.363Z,100539.05
2018-02-12T05:09:47.584Z,100537.78
2018-02-12T05:10:51.886Z,100541.96
2018-02-12T05:11:56.204Z,100542.41
2018-02-12T05:13:00.477Z,100539.47
2018-02-12T05:14:04.661Z,100547.05
2018-02-12T05:15:08.862Z,100542.02
2018-02-12T05:16:13.061Z,100547.95
2018-02-12T05:17:17.244Z,100554.25
2018-02-12T05:18:21.428Z,100561.83
2018-02-12T05:19:25.630Z,100558.92
2018-02-12T05:20:30.687Z,100562.68
2018-02-12T05:21:35.630Z,100565.23
2018-02-12T05:22:39.836Z,100569.06
2018-02-12T05:23:44.036Z,100570.38
2018-02-12T05:24:49.022Z,100570.84
2018-02-12T05:25:53.485Z,100574.67
2018-02-12T05:26:57.961Z,100578.08
2018-02-12T05:28:02.376Z,100581.44
2018-02-12T05:29:06.578Z,100573.86
2018-02-12T05:30:10.757Z,100583.58
2018-02-12T05:31:15.023Z,100581.95
2018-02-12T05:32:19.209Z,100589.95
2018-02-12T05:33:23.906Z,100595.05
2018-02-12T05:34:28.512Z,100594.69
2018-02-12T05:35:32.816Z,100600.58
2018-02-12T05:36:37.247Z,100599.73
2018-02-12T05:37:41.446Z,100601.88
2018-02-12T05:38:45.655Z,100601.87
2018-02-12T05:39:49.856Z,100598.91
2018-02-12T05:40:55.087Z,100604.80
2018-02-12T05:41:59.648Z,100604.36
2018-02-12T05:43:03.961Z,100603.91
2018-02-12T05:44:08.194Z,100606.42
2018-02-12T05:45:12.464Z,100608.89
2018-02-12T05:46:16.668Z,100610.61
2018-02-12T05:47:20.986Z,100604.70
2018-02-12T05:48:25.281Z,100608.88
2018-02-12T05:49:29.772Z,100614.34
2018-02-12T05:50:34.906Z,100606.74
2018-02-12T05:51:39.131Z,100608.83
2018-02-12T05:52:44.086Z,100605.52
2018-02-12T05:53:48.262Z,100614.32
2018-02-12T05:54:52.463Z,100615.57
2018-02-12T05:55:57.526Z,100619.77
2018-02-12T05:57:01.827Z,100618.94
2018-02-12T05:58:06.870Z,100627.81
2018-02-12T05:59:11.081Z,100633.73
2018-02-12T06:00:15.280Z,100626.56
2018-02-12T06:01:20.228Z,100636.27
2018-02-12T06:02:24.942Z,100634.52
2018-02-12T06:03:29.673Z,100632.47
2018-02-12T06:04:34.149Z,100631.55
2018-02-12T06:05:39.126Z,100635.70
2018-02-12T06:06:43.320Z,100636.11
2018-02-12T06:07:48.349Z,100629.39
2018-02-12T06:08:52.530Z,100629.77
2018-02-12T06:09:58.156Z,100639.50
2018-02-12T06:11:02.407Z,100638.68
2018-02-12T06:12:06.594Z,100642.84
2018-02-12T06:13:10.820Z,100637.45
2018-02-12T06:14:15.759Z,100643.25
2018-02-12T06:15:20.745Z,100639.88
2018-02-12T06:16:25.821Z,100639.41
2018-02-12T06:17:30.077Z,100641.50
2018-02-12T06:18:34.344Z,100641.92
2018-02-12T06:19:38.559Z,100646.53
2018-02-12T06:20:43.585Z,100641.91
2018-02-12T06:21:48.564Z,100643.58
2018-02-12T06:22:52.748Z,100638.55
2018-02-12T06:23:57.201Z,100640.16
2018-02-12T06:25:02.285Z,100647.29
2018-02-12T06:26:06.501Z,100639.28
2018-02-12T06:27:10.746Z,100641.39
2018-02-12T06:28:14.956Z,100642.22
2018-02-12T06:29:19.187Z,100648.92
2018-02-12T06:30:23.614Z,100647.25
2018-02-12T06:31:28.015Z,100651.48
2018-02-12T06:32:33.453Z,100655.22
2018-02-12T06:33:37.649Z,100657.33
2018-02-12T06:34:41.883Z,100658.16
2018-02-12T06:35:46.098Z,100657.34
2018-02-12T06:36:50.276Z,100663.67
2018-02-12T06:37:54.671Z,100666.20
2018-02-12T06:38:59.814Z,100671.20
2018-02-12T06:40:04.188Z,100669.08
2018-02-12T06:41:08.399Z,100672.45
2018-02-12T06:42:13.339Z,100669.88
2018-02-12T06:43:17.511Z,100672.78
2018-02-12T06:44:21.710Z,100676.59
2018-02-12T06:45:26.156Z,100677.45
2018-02-12T06:46:30.491Z,100679.09
2018-02-12T06:47:34.928Z,100685.41
2018-02-12T06:48:39.128Z,100681.20
2018-02-12T06:49:43.337Z,100689.95
2018-02-12T06:50:47.955Z,100692.89
2018-02-12T06:51:52.144Z,100689.52
2018-02-12T06:52:58.031Z,100691.20
2018-02-12T06:54:02.260Z,100692.86
2018-02-12T06:55:06.481Z,100700.91
2018-02-12T06:56:10.746Z,100697.95
2018-02-12T06:57:14.920Z,100696.30
2018-02-12T06:58:19.244Z,100700.09
2018-02-12T06:59:24.283Z,100707.70
2018-02-12T07:00:29.264Z,100705.22
2018-02-12T07:01:35.065Z,100718.69
2018-02-12T07:02:39.239Z,100723.33
2018-02-12T07:03:43.407Z,100727.55
2018-02-12T07:04:47.747Z,100721.23
2018-02-12T07:05:51.943Z,100727.97
2018-02-12T07:06:56.265Z,100726.66
2018-02-12T07:08:00.596Z,100728.74
2018-02-12T07:09:05.632Z,100726.64
2018-02-12T07:10:09.988Z,100728.31
2018-02-12T07:11:14.227Z,100727.50
2018-02-12T07:12:18.488Z,100735.11
2018-02-12T07:13:23.673Z,100735.95
2018-02-12T07:14:28.734Z,100730.56
2018-02-12T07:15:34.525Z,100732.22
2018-02-12T07:16:38.712Z,100738.52
2018-02-12T07:17:43.668Z,100739.39
2018-02-12T07:18:47.877Z,100741.94
2018-02-12T07:19:52.081Z,100744.11
2018-02-12T07:20:57.318Z,100741.11
2018-02-12T07:22:01.558Z,100740.30
2018-02-12T07:23:05.819Z,100739.09
2018-02-12T07:24:10.783Z,100741.61
2018-02-12T07:25:14.962Z,100741.98
2018-02-12T07:26:19.975Z,100740.34
2018-02-12T07:27:24.383Z,100744.52
2018-02-12T07:28:29.754Z,100743.27
2018-02-12T07:29:34.280Z,100738.63
2018-02-12T07:30:38.475Z,100745.37
2018-02-12T07:31:43.450Z,100745.42
2018-02-12T07:32:47.671Z,100750.13
2018-02-12T07:33:51.928Z,100751.87
2018-02-12T07:34:56.579Z,100750.59
2018-02-12T07:36:01.111Z,100751.00
2018-02-12T07:37:05.355Z,100752.70
2018-02-12T07:38:10.321Z,100754.38
2018-02-12T07:39:14.548Z,100753.52
2018-02-12T07:40:18.715Z,100755.16
2018-02-12T07:41:22.934Z,100762.73
2018-02-12T07:42:28.154Z,100760.66
2018-02-12T07:43:32.403Z,100764.05
2018-02-12T07:44:36.699Z,100767.10
2018-02-12T07:45:41.639Z,100763.22
2018-02-12T07:46:45.809Z,100773.38
2018-02-12T07:47:49.988Z,100770.89
2018-02-12T07:48:54.362Z,100779.42
2018-02-12T07:49:58.705Z,100777.38
2018-02-12T07:51:03.033Z,100773.97
2018-02-12T07:52:07.211Z,100773.23
2018-02-12T07:53:11.425Z,100774.50
2018-02-12T07:54:16.050Z,100771.52
2018-02-12T07:55:20.358Z,100784.55
2018-02-12T07:56:24.644Z,100790.00
2018-02-12T07:57:28.933Z,100784.17
2018-02-12T07:58:33.211Z,100787.58
2018-02-12T07:59:37.898Z,100789.69
2018-02-12T08:00:42.868Z,100791.36
2018-02-12T08:01:47.063Z,100789.68
2018-02-12T08:02:51.260Z,100795.60
2018-02-12T08:03:55.510Z,100795.95
2018-02-12T08:04:59.795Z,100793.86
2018-02-12T08:06:04.049Z,100798.12
2018-02-12T08:07:08.326Z,100799.34
2018-02-12T08:08:12.593Z,100801.49
2018-02-12T08:09:17.572Z,100801.94
2018-02-12T08:10:21.795Z,100801.16
2018-02-12T08:11:26.813Z,100802.78
2018-02-12T08:12:32.334Z,100797.75
2018-02-12T08:13:36.617Z,100804.06
2018-02-12T08:14:41.558Z,100801.82
2018-02-12T08:15:46.572Z,100805.23
2018-02-12T08:16:50.738Z,100802.20
2018-02-12T08:17:55.112Z,100805.51
2018-02-12T08:19:00.097Z,100805.40
2018-02-12T08:20:05.170Z,100807.14
2018-02-12T08:21:10.164Z,100810.06
2018-02-12T08:22:14.360Z,100805.89
2018-02-12T08:23:18.581Z,100809.66
2018-02-12T08:24:22.795Z,100814.30
2018-02-12T08:25:27.594Z,100811.36
2018-02-12T08:26:32.004Z,100816.48
2018-02-12T08:27:36.232Z,100818.52
2018-02-12T08:28:40.414Z,100816.85
2018-02-12T08:29:44.598Z,100819.77
2018-02-12T08:30:49.606Z,100825.29
2018-02-12T08:31:53.932Z,100832.89
2018-02-12T08:32:58.996Z,100832.98
2018-02-12T08:34:03.292Z,100833.87
2018-02-12T08:35:07.500Z,100838.97
2018-02-12T08:36:12.469Z,100831.47
2018-02-12T08:37:16.662Z,100831.48
2018-02-12T08:38:20.880Z,100831.94
2018-02-12T08:39:25.543Z,100836.55
2018-02-12T08:40:29.844Z,100835.83
2018-02-12T08:41:34.406Z,100834.18
2018-02-12T08:42:38.592Z,100838.41
2018-02-12T08:43:42.849Z,100840.95
2018-02-12T08:44:47.031Z,100838.48
2018-02-12T08:45:52.033Z,100834.71
2018-02-12T08:46:58.792Z,100836.05
2018-02-12T08:48:03.247Z,100841.15
2018-02-12T08:49:08.300Z,100846.58
2018-02-12T08:50:12.505Z,100841.94
2018-02-12T08:51:16.684Z,100842.37
2018-02-12T08:52:20.874Z,100851.31
2018-02-12T08:53:25.303Z,100851.80
2018-02-12T08:54:29.965Z,100847.61
2018-02-12T08:55:34.350Z,100848.80
2018-02-12T08:56:39.336Z,100848.78
2018-02-12T08:57:43.516Z,100855.09
2018-02-12T08:58:47.719Z,100854.33
2018-02-12T08:59:52.363Z,100857.23
2018-02-12T09:00:56.797Z,100861.04
2018-02-12T09:02:01.041Z,100858.12
2018-02-12T09:03:05.462Z,100862.66
2018-02-12T09:04:10.421Z,100862.69
2018-02-12T09:05:14.805Z,100867.73
2018-02-12T09:06:19.781Z,100863.92
2018-02-12T09:07:24.367Z,100868.13
2018-02-12T09:08:28.804Z,100866.46
2018-02-12T09:09:33.583Z,100869.78
2018-02-12T09:10:39.115Z,100875.62
2018-02-12T09:11:43.291Z,100875.61
2018-02-12T09:12:47.465Z,100879.00
2018-02-12T09:13:52.436Z,100888.28
2018-02-12T09:14:56.931Z,100889.51
2018-02-12T09:16:01.286Z,100884.47
2018-02-12T09:17:05.492Z,100887.87
2018-02-12T09:18:09.667Z,100892.05
2018-02-12T09:19:13.839Z,100892.43
2018-02-12T09:20:18.049Z,100890.73
2018-02-12T09:21:22.282Z,100897.02
2018-02-12T09:22:27.366Z,100894.48
2018-02-12T09:23:31.735Z,100895.73
2018-02-12T09:24:36.062Z,100899.53
2018-02-12T09:25:40.281Z,100902.09
2018-02-12T09:26:44.645Z,100901.30
2018-02-12T09:27:48.852Z,100907.70
2018-02-12T09:28:53.052Z,100905.19
2018-02-12T09:29:58.338Z,100907.42
2018-02-12T09:31:02.841Z,100905.73
2018-02-12T09:32:07.862Z,100906.21
2018-02-12T09:33:12.846Z,100909.23
2018-02-12T09:34:17.020Z,100905.88
2018-02-12T09:35:21.187Z,100909.66
2018-02-12T09:36:25.699Z,100908.88
2018-02-12T09:37:30.066Z,100908.94
2018-02-12T09:38:34.854Z,100917.44
2018-02-12T09:39:39.929Z,100920.83
2018-02-12T09:40:44.104Z,100916.23
2018-02-12T09:41:49.082Z,100918.36
2018-02-12T09:42:53.568Z,100925.50
2018-02-12T09:43:57.976Z,100917.13
2018-02-12T09:45:02.965Z,100927.77
2018-02-12T09:46:07.192Z,100919.77
2018-02-12T09:47:11.378Z,100926.91
2018-02-12T09:48:15.956Z,100927.86
2018-02-12T09:49:20.126Z,100929.16
2018-02-12T09:50:24.359Z,100926.27
2018-02-12T09:51:29.428Z,100925.72
2018-02-12T09:52:33.666Z,100925.27
2018-02-12T09:53:37.930Z,100927.36
2018-02-12T09:54:42.108Z,100924.39
2018-02-12T09:55:46.284Z,100934.55
2018-02-12T09:56:50.449Z,100934.19
2018-02-12T09:57:55.520Z,100932.09
2018-02-12T09:59:00.144Z,100932.11
2018-02-12T10:00:04.421Z,100935.94
2018-02-12T10:01:08.721Z,100939.78
2018-02-12T10:02:13.699Z,100937.67
2018-02-12T10:03:17.927Z,100948.29
2018-02-12T10:04:22.146Z,100949.59
2018-02-12T10:05:26.494Z,100941.17
2018-02-12T10:06:30.895Z,100945.41
2018-02-12T10:07:36.151Z,100947.93
2018-02-12T10:08:40.343Z,100947.11
2018-02-12T10:09:45.722Z,100952.66
2018-02-12T10:10:49.950Z,100951.44
2018-02-12T10:11:54.532Z,100956.50
2018-02-12T10:12:58.936Z,100953.55
2018-02-12T10:14:03.135Z,100948.53
2018-02-12T10:15:08.150Z,100957.44
2018-02-12T10:16:13.841Z,100960.00
2018-02-12T10:17:18.011Z,100959.19
2018-02-12T10:18:22.200Z,100967.65
2018-02-12T10:19:26.573Z,100956.65
2018-02-12T10:20:30.842Z,100964.69
2018-02-12T10:21:35.098Z,100961.34
2018-02-12T10:22:39.313Z,100963.05
2018-02-12T10:23:43.590Z,100958.36
2018-02-12T10:24:48.562Z,100966.73
2018-02-12T10:25:52.856Z,100970.50
2018-02-12T10:26:57.159Z,100972.16
2018-02-12T10:28:01.491Z,100976.83
2018-02-12T10:29:05.955Z,100971.83
2018-02-12T10:30:10.162Z,100973.09
2018-02-12T10:31:14.915Z,100979.39
2018-02-12T10:32:19.910Z,100984.09
2018-02-12T10:33:24.700Z,100987.50
2018-02-12T10:34:29.498Z,100987.09
2018-02-12T10:35:34.722Z,100983.73
2018-02-12T10:36:40.068Z,100985.87
2018-02-12T10:37:44.999Z,100990.19
2018-02-12T10:38:49.217Z,100986.81
2018-02-12T10:39:53.682Z,100990.63
2018-02-12T10:40:58.981Z,100988.52
2018-02-12T10:42:03.386Z,100992.33
2018-02-12T10:43:07.732Z,100995.30
2018-02-12T10:44:11.962Z,100988.53
2018-02-12T10:45:16.150Z,100989.79
2018-02-12T10:46:20.330Z,100996.17
2018-02-12T10:47:24.576Z,100994.50
2018-02-12T10:48:29.268Z,100990.29
2018-02-12T10:49:33.883Z,100994.94
2018-02-12T10:50:38.114Z,100992.40
2018-02-12T10:51:42.282Z,101003.81
2018-02-12T10:52:46.456Z,101000.42
2018-02-12T10:53:50.701Z,100999.55
2018-02-12T10:54:55.170Z,100994.94
2018-02-12T10:55:59.561Z,101002.09
2018-02-12T10:57:03.750Z,101002.11
2018-02-12T10:58:08.745Z,100997.88
2018-02-12T10:59:12.951Z,101004.59
2018-02-12T11:00:17.555Z,101008.02
2018-02-12T11:01:21.748Z,101011.38
2018-02-12T11:02:26.456Z,101008.02
2018-02-12T11:03:31.082Z,101011.87
2018-02-12T11:04:35.393Z,101009.33
2018-02-12T11:05:40.351Z,101007.23
2018-02-12T11:06:44.558Z,101007.20
2018-02-12T11:07:48.743Z,101008.00
2018-02-12T11:08:52.910Z,101009.67
2018-02-12T11:09:57.290Z,101006.77
2018-02-12T11:11:02.595Z,101003.80
2018-02-12T11:12:06.902Z,101008.91
2018-02-12T11:13:11.854Z,101014.42
2018-02-12T11:14:16.135Z,101011.91
2018-02-12T11:15:20.329Z,101008.51
2018-02-12T11:16:24.677Z,101009.38
2018-02-12T11:17:28.987Z,101013.19
2018-02-12T11:18:33.294Z,101009.36
2018-02-12T11:19:37.521Z,101011.08
2018-02-12T11:20:41.711Z,101002.61
2018-02-12T11:21:46.708Z,101008.09
2018-02-12T11:22:50.927Z,101011.48
2018-02-12T11:23:55.827Z,101009.39
2018-02-12T11:25:00.378Z,101009.81
2018-02-12T11:26:04.704Z,101013.20
2018-02-12T11:27:09.680Z,101015.73
2018-02-12T11:28:14.300Z,101015.30
2018-02-12T11:29:18.501Z,101024.56
2018-02-12T11:30:22.690Z,101020.78
2018-02-12T11:31:28.036Z,101020.37
2018-02-12T11:32:32.745Z,101016.14
2018-02-12T11:33:37.805Z,101019.53
2018-02-12T11:34:42.028Z,101021.66
2018-02-12T11:35:46.245Z,101021.23
2018-02-12T11:36:50.402Z,101022.94
2018-02-12T11:37:56.167Z,101026.76
2018-02-12T11:39:00.498Z,101023.37
2018-02-12T11:40:04.892Z,101026.34
2018-02-12T11:41:09.111Z,101025.50
2018-02-12T11:42:13.280Z,101032.70
2018-02-12T11:43:17.512Z,101028.88
2018-02-12T11:44:21.682Z,101030.56
2018-02-12T11:45:26.636Z,101026.76
2018-02-12T11:46:30.927Z,101030.59
2018-02-12T11:47:35.377Z,101032.69
2018-02-12T11:48:40.368Z,101029.70
2018-02-12T11:49:44.539Z,101041.16
2018-02-12T11:50:48.722Z,101032.70
2018-02-12T11:51:52.948Z,101032.69
2018-02-12T11:52:57.423Z,101030.56
2018-02-12T11:54:01.979Z,101029.73
2018-02-12T11:55:06.989Z,101034.83
2018-02-12T11:56:11.573Z,101034.82
2018-02-12T11:57:15.764Z,101038.22
2018-02-12T11:58:19.966Z,101033.95
2018-02-12T11:59:24.465Z,101031.41
2018-02-12T12:00:28.781Z,101031.81
2018-02-12T12:01:33.057Z,101029.70
2018-02-12T12:02:37.400Z,101028.00
2018-02-12T12:03:42.346Z,101039.02
2018-02-12T12:04:46.545Z,101035.18
2018-02-12T12:05:51.530Z,101027.12
2018-02-12T12:06:56.722Z,101031.77
2018-02-12T12:08:01.497Z,101033.04
2018-02-12T12:09:05.846Z,101033.45
2018-02-12T12:10:10.826Z,101024.55
2018-02-12T12:11:15.011Z,101023.30
2018-02-12T12:12:19.260Z,101022.86
2018-02-12T12:13:23.505Z,101025.84
2018-02-12T12:14:28.161Z,101022.47
2018-02-12T12:15:33.341Z,101024.14